sensor_id;sensor_type;location;lat;lon;timestamp;P1;durP1;ratioP1;P2;durP2;ratioP2
36599;SDS011;35385;55.668;37.508;2023-03-26T00:00:55;22.33;;;17.73;;
36599;SDS011;35385;55.668;37.508;2023-03-26T00:01:56;21.73;;;17.90;;
36599;SDS011;35385;55.668;37.508;2023-03-26T00:02:57;20.57;;;16.30;;
36599;SDS011;35385;55.668;37.508;2023-03-26T00:03:58;20.67;;;17.63;;
36599;SDS011;35385;55.668;37.508;2023-03-26T00:04:59;21.15;;;16.80;;
36599;SDS011;35385;55.668;37.508;2023-03-26T00:06:03;20.70;;;16.60;;
36599;SDS011;35385;55.668;37.508;2023-03-26T00:07:09;19.83;;;16.20;;
36599;SDS011;35385;55.668;37.508;2023-03-26T00:08:09;19.37;;;15.90;;
36599;SDS011;35385;55.668;37.508;2023-03-26T00:09:10;18.93;;;15.73;;
36599;SDS011;35385;55.668;37.508;2023-03-26T00:10:13;17.52;;;15.15;;
36599;SDS011;35385;55.668;37.508;2023-03-26T00:11:15;19.00;;;15.82;;
36599;SDS011;35385;55.668;37.508;2023-03-26T00:12:20;26.20;;;18.05;;
36599;SDS011;35385;55.668;37.508;2023-03-26T00:13:20;22.20;;;16.40;;
36599;SDS011;35385;55.668;37.508;2023-03-26T00:14:24;21.27;;;16.73;;
36599;SDS011;35385;55.668;37.508;2023-03-26T00:15:25;21.85;;;17.20;;
36599;SDS011;35385;55.668;37.508;2023-03-26T00:16:27;21.20;;;16.73;;
36599;SDS011;35385;55.668;37.508;2023-03-26T00:17:29;20.13;;;16.05;;
36599;SDS011;35385;55.668;37.508;2023-03-26T00:18:30;21.33;;;16.53;;
36599;SDS011;35385;55.668;37.508;2023-03-26T00:19:50;20.52;;;16.52;;
36599;SDS011;35385;55.668;37.508;2023-03-26T00:20:52;20.90;;;16.55;;
36599;SDS011;35385;55.668;37.508;2023-03-26T00:21:53;19.67;;;16.77;;
36599;SDS011;35385;55.668;37.508;2023-03-26T00:22:53;20.77;;;16.73;;
36599;SDS011;35385;55.668;37.508;2023-03-26T00:24:13;21.33;;;16.02;;
36599;SDS011;35385;55.668;37.508;2023-03-26T00:25:15;21.50;;;17.10;;
36599;SDS011;35385;55.668;37.508;2023-03-26T00:26:16;21.25;;;16.77;;
36599;SDS011;35385;55.668;37.508;2023-03-26T00:27:35;22.15;;;17.23;;
36599;SDS011;35385;55.668;37.508;2023-03-26T00:28:37;21.42;;;16.85;;
36599;SDS011;35385;55.668;37.508;2023-03-26T00:29:40;20.25;;;16.60;;
36599;SDS011;35385;55.668;37.508;2023-03-26T00:30:41;23.30;;;17.53;;
36599;SDS011;35385;55.668;37.508;2023-03-26T00:31:41;20.33;;;16.33;;
36599;SDS011;35385;55.668;37.508;2023-03-26T00:32:45;22.10;;;16.75;;
36599;SDS011;35385;55.668;37.508;2023-03-26T00:33:45;20.33;;;14.97;;
36599;SDS011;35385;55.668;37.508;2023-03-26T00:34:46;21.58;;;15.57;;
36599;SDS011;35385;55.668;37.508;2023-03-26T00:35:50;21.00;;;16.10;;
36599;SDS011;35385;55.668;37.508;2023-03-26T00:36:53;20.80;;;15.75;;
36599;SDS011;35385;55.668;37.508;2023-03-26T00:37:54;22.03;;;17.20;;
36599;SDS011;35385;55.668;37.508;2023-03-26T00:38:54;21.23;;;17.17;;
36599;SDS011;35385;55.668;37.508;2023-03-26T00:39:55;28.40;;;19.07;;
36599;SDS011;35385;55.668;37.508;2023-03-26T00:40:58;25.20;;;18.42;;
36599;SDS011;35385;55.668;37.508;2023-03-26T00:42:05;27.70;;;19.25;;
36599;SDS011;35385;55.668;37.508;2023-03-26T00:43:05;24.17;;;18.77;;
36599;SDS011;35385;55.668;37.508;2023-03-26T00:44:17;27.52;;;19.98;;
36599;SDS011;35385;55.668;37.508;2023-03-26T00:45:18;25.13;;;18.73;;
36599;SDS011;35385;55.668;37.508;2023-03-26T00:46:21;27.48;;;19.52;;
36599;SDS011;35385;55.668;37.508;2023-03-26T00:47:27;27.95;;;19.92;;
36599;SDS011;35385;55.668;37.508;2023-03-26T00:49:47;24.50;;;18.30;;
36599;SDS011;35385;55.668;37.508;2023-03-26T00:50:48;23.87;;;17.93;;
36599;SDS011;35385;55.668;37.508;2023-03-26T00:54:28;25.83;;;18.60;;
36599;SDS011;35385;55.668;37.508;2023-03-26T00:55:28;23.95;;;17.70;;
36599;SDS011;35385;55.668;37.508;2023-03-26T00:56:29;24.27;;;18.53;;
36599;SDS011;35385;55.668;37.508;2023-03-26T00:57:30;25.10;;;18.08;;
36599;SDS011;35385;55.668;37.508;2023-03-26T00:58:31;25.97;;;18.83;;
36599;SDS011;35385;55.668;37.508;2023-03-26T01:01:17;23.10;;;17.95;;
36599;SDS011;35385;55.668;37.508;2023-03-26T01:02:20;25.92;;;18.38;;
36599;SDS011;35385;55.668;37.508;2023-03-26T01:03:21;24.43;;;17.77;;
36599;SDS011;35385;55.668;37.508;2023-03-26T01:04:26;21.13;;;16.08;;
36599;SDS011;35385;55.668;37.508;2023-03-26T01:05:50;23.40;;;17.55;;
36599;SDS011;35385;55.668;37.508;2023-03-26T01:07:07;23.77;;;17.63;;
36599;SDS011;35385;55.668;37.508;2023-03-26T01:08:17;23.63;;;16.38;;
36599;SDS011;35385;55.668;37.508;2023-03-26T01:09:29;22.55;;;16.88;;
36599;SDS011;35385;55.668;37.508;2023-03-26T01:10:32;22.45;;;17.02;;
36599;SDS011;35385;55.668;37.508;2023-03-26T01:11:37;25.05;;;18.17;;
36599;SDS011;35385;55.668;37.508;2023-03-26T01:12:38;25.07;;;18.57;;
36599;SDS011;35385;55.668;37.508;2023-03-26T01:13:41;25.83;;;18.73;;
36599;SDS011;35385;55.668;37.508;2023-03-26T01:14:45;25.17;;;18.08;;
36599;SDS011;35385;55.668;37.508;2023-03-26T01:15:46;30.40;;;20.30;;
36599;SDS011;35385;55.668;37.508;2023-03-26T01:16:51;26.95;;;20.17;;
36599;SDS011;35385;55.668;37.508;2023-03-26T01:17:53;27.10;;;19.15;;
36599;SDS011;35385;55.668;37.508;2023-03-26T01:18:58;29.73;;;20.13;;
36599;SDS011;35385;55.668;37.508;2023-03-26T01:21:45;24.25;;;18.50;;
36599;SDS011;35385;55.668;37.508;2023-03-26T01:22:48;25.93;;;19.93;;
36599;SDS011;35385;55.668;37.508;2023-03-26T01:23:59;25.52;;;18.20;;
36599;SDS011;35385;55.668;37.508;2023-03-26T01:25:18;25.65;;;18.50;;
36599;SDS011;35385;55.668;37.508;2023-03-26T01:28:00;22.25;;;16.23;;
36599;SDS011;35385;55.668;37.508;2023-03-26T01:29:05;23.15;;;16.75;;
36599;SDS011;35385;55.668;37.508;2023-03-26T01:31:38;21.00;;;16.08;;
36599;SDS011;35385;55.668;37.508;2023-03-26T01:32:57;19.73;;;15.02;;
36599;SDS011;35385;55.668;37.508;2023-03-26T01:34:20;25.77;;;17.52;;
36599;SDS011;35385;55.668;37.508;2023-03-26T01:35:36;20.27;;;14.65;;
36599;SDS011;35385;55.668;37.508;2023-03-26T01:36:56;19.63;;;15.10;;
36599;SDS011;35385;55.668;37.508;2023-03-26T01:40:06;20.25;;;15.25;;
36599;SDS011;35385;55.668;37.508;2023-03-26T01:42:33;25.80;;;18.83;;
36599;SDS011;35385;55.668;37.508;2023-03-26T01:45:06;24.80;;;18.13;;
36599;SDS011;35385;55.668;37.508;2023-03-26T01:46:12;25.35;;;17.75;;
36599;SDS011;35385;55.668;37.508;2023-03-26T01:47:15;23.85;;;18.13;;
36599;SDS011;35385;55.668;37.508;2023-03-26T01:48:17;22.27;;;16.52;;
36599;SDS011;35385;55.668;37.508;2023-03-26T01:49:36;25.33;;;17.90;;
36599;SDS011;35385;55.668;37.508;2023-03-26T01:50:55;23.70;;;17.48;;
36599;SDS011;35385;55.668;37.508;2023-03-26T01:51:57;20.50;;;15.98;;
36599;SDS011;35385;55.668;37.508;2023-03-26T01:52:58;22.77;;;17.60;;
36599;SDS011;35385;55.668;37.508;2023-03-26T01:54:00;23.27;;;16.75;;
36599;SDS011;35385;55.668;37.508;2023-03-26T01:56:35;21.38;;;17.40;;
36599;SDS011;35385;55.668;37.508;2023-03-26T01:59:13;19.10;;;14.75;;
36599;SDS011;35385;55.668;37.508;2023-03-26T02:00:45;23.63;;;17.27;;
36599;SDS011;35385;55.668;37.508;2023-03-26T02:04:29;20.55;;;14.80;;
36599;SDS011;35385;55.668;37.508;2023-03-26T02:05:53;20.75;;;15.40;;
36599;SDS011;35385;55.668;37.508;2023-03-26T02:08:46;20.00;;;15.10;;
36599;SDS011;35385;55.668;37.508;2023-03-26T02:09:59;18.60;;;14.45;;
36599;SDS011;35385;55.668;37.508;2023-03-26T02:11:10;19.35;;;13.52;;
36599;SDS011;35385;55.668;37.508;2023-03-26T02:12:13;19.92;;;14.60;;
36599;SDS011;35385;55.668;37.508;2023-03-26T02:13:14;19.80;;;15.05;;
36599;SDS011;35385;55.668;37.508;2023-03-26T02:14:15;21.23;;;14.73;;
36599;SDS011;35385;55.668;37.508;2023-03-26T02:15:16;19.85;;;15.02;;
36599;SDS011;35385;55.668;37.508;2023-03-26T02:16:17;19.67;;;15.20;;
36599;SDS011;35385;55.668;37.508;2023-03-26T02:17:19;22.17;;;15.88;;
36599;SDS011;35385;55.668;37.508;2023-03-26T02:18:23;22.40;;;16.60;;
36599;SDS011;35385;55.668;37.508;2023-03-26T02:19:42;21.23;;;16.92;;
36599;SDS011;35385;55.668;37.508;2023-03-26T02:22:20;19.65;;;15.07;;
36599;SDS011;35385;55.668;37.508;2023-03-26T02:23:21;20.53;;;16.40;;
36599;SDS011;35385;55.668;37.508;2023-03-26T02:24:22;21.67;;;16.20;;
36599;SDS011;35385;55.668;37.508;2023-03-26T02:25:22;21.40;;;16.13;;
36599;SDS011;35385;55.668;37.508;2023-03-26T02:26:23;21.60;;;16.27;;
36599;SDS011;35385;55.668;37.508;2023-03-26T02:27:24;20.50;;;16.17;;
36599;SDS011;35385;55.668;37.508;2023-03-26T02:29:44;23.67;;;15.77;;
36599;SDS011;35385;55.668;37.508;2023-03-26T02:30:46;20.83;;;15.63;;
36599;SDS011;35385;55.668;37.508;2023-03-26T02:31:47;17.33;;;13.93;;
36599;SDS011;35385;55.668;37.508;2023-03-26T02:32:48;21.45;;;15.18;;
36599;SDS011;35385;55.668;37.508;2023-03-26T02:33:51;22.75;;;16.40;;
36599;SDS011;35385;55.668;37.508;2023-03-26T02:34:54;19.20;;;14.48;;
36599;SDS011;35385;55.668;37.508;2023-03-26T02:35:55;17.37;;;13.60;;
36599;SDS011;35385;55.668;37.508;2023-03-26T02:37:00;17.40;;;13.85;;
36599;SDS011;35385;55.668;37.508;2023-03-26T02:38:01;19.20;;;14.93;;
36599;SDS011;35385;55.668;37.508;2023-03-26T02:39:02;21.20;;;16.03;;
36599;SDS011;35385;55.668;37.508;2023-03-26T02:40:03;22.67;;;17.02;;
36599;SDS011;35385;55.668;37.508;2023-03-26T02:41:10;21.45;;;17.13;;
36599;SDS011;35385;55.668;37.508;2023-03-26T02:42:10;22.23;;;17.57;;
36599;SDS011;35385;55.668;37.508;2023-03-26T02:43:11;21.80;;;17.53;;
36599;SDS011;35385;55.668;37.508;2023-03-26T02:44:11;18.10;;;16.07;;
36599;SDS011;35385;55.668;37.508;2023-03-26T02:45:12;22.13;;;18.20;;
36599;SDS011;35385;55.668;37.508;2023-03-26T02:47:50;20.50;;;16.27;;
36599;SDS011;35385;55.668;37.508;2023-03-26T02:48:51;21.10;;;16.17;;
36599;SDS011;35385;55.668;37.508;2023-03-26T02:51:10;20.10;;;14.55;;
36599;SDS011;35385;55.668;37.508;2023-03-26T02:52:11;18.10;;;13.57;;
36599;SDS011;35385;55.668;37.508;2023-03-26T02:53:30;17.50;;;14.52;;
36599;SDS011;35385;55.668;37.508;2023-03-26T02:54:32;16.90;;;14.45;;
36599;SDS011;35385;55.668;37.508;2023-03-26T02:55:52;17.75;;;14.38;;
36599;SDS011;35385;55.668;37.508;2023-03-26T02:56:53;18.67;;;15.53;;
36599;SDS011;35385;55.668;37.508;2023-03-26T02:58:12;23.02;;;17.80;;
36599;SDS011;35385;55.668;37.508;2023-03-26T03:00:35;21.98;;;17.33;;
36599;SDS011;35385;55.668;37.508;2023-03-26T03:01:36;21.60;;;17.70;;
36599;SDS011;35385;55.668;37.508;2023-03-26T03:02:41;20.98;;;17.45;;
36599;SDS011;35385;55.668;37.508;2023-03-26T03:03:43;23.33;;;17.90;;
36599;SDS011;35385;55.668;37.508;2023-03-26T03:04:46;20.70;;;17.48;;
36599;SDS011;35385;55.668;37.508;2023-03-26T03:05:46;21.40;;;18.53;;
36599;SDS011;35385;55.668;37.508;2023-03-26T03:06:47;23.07;;;17.33;;
36599;SDS011;35385;55.668;37.508;2023-03-26T03:07:57;23.40;;;18.60;;
36599;SDS011;35385;55.668;37.508;2023-03-26T03:08:58;22.90;;;18.65;;
36599;SDS011;35385;55.668;37.508;2023-03-26T03:09:58;21.13;;;17.57;;
36599;SDS011;35385;55.668;37.508;2023-03-26T03:11:08;21.45;;;17.20;;
36599;SDS011;35385;55.668;37.508;2023-03-26T03:12:10;20.77;;;16.65;;
36599;SDS011;35385;55.668;37.508;2023-03-26T03:13:11;21.03;;;17.90;;
36599;SDS011;35385;55.668;37.508;2023-03-26T03:14:11;21.17;;;17.47;;
36599;SDS011;35385;55.668;37.508;2023-03-26T03:15:12;22.17;;;18.00;;
36599;SDS011;35385;55.668;37.508;2023-03-26T03:16:31;23.27;;;18.23;;
36599;SDS011;35385;55.668;37.508;2023-03-26T03:17:50;20.77;;;16.65;;
36599;SDS011;35385;55.668;37.508;2023-03-26T03:18:51;20.90;;;18.03;;
36599;SDS011;35385;55.668;37.508;2023-03-26T03:19:58;24.92;;;18.00;;
36599;SDS011;35385;55.668;37.508;2023-03-26T03:21:17;23.15;;;17.65;;
36599;SDS011;35385;55.668;37.508;2023-03-26T03:22:18;21.80;;;17.50;;
36599;SDS011;35385;55.668;37.508;2023-03-26T03:23:19;20.02;;;17.30;;
36599;SDS011;35385;55.668;37.508;2023-03-26T03:25:42;21.58;;;17.85;;
36599;SDS011;35385;55.668;37.508;2023-03-26T03:28:21;20.60;;;17.15;;
36599;SDS011;35385;55.668;37.508;2023-03-26T03:29:22;22.45;;;17.85;;
36599;SDS011;35385;55.668;37.508;2023-03-26T03:30:23;19.23;;;16.53;;
36599;SDS011;35385;55.668;37.508;2023-03-26T03:31:24;20.38;;;16.55;;
36599;SDS011;35385;55.668;37.508;2023-03-26T03:32:26;18.95;;;16.33;;
36599;SDS011;35385;55.668;37.508;2023-03-26T03:33:26;18.60;;;15.40;;
36599;SDS011;35385;55.668;37.508;2023-03-26T03:34:27;20.13;;;16.23;;
36599;SDS011;35385;55.668;37.508;2023-03-26T03:35:28;22.03;;;18.10;;
36599;SDS011;35385;55.668;37.508;2023-03-26T03:36:29;23.40;;;17.05;;
36599;SDS011;35385;55.668;37.508;2023-03-26T03:37:32;21.63;;;17.50;;
36599;SDS011;35385;55.668;37.508;2023-03-26T03:38:32;20.73;;;16.97;;
36599;SDS011;35385;55.668;37.508;2023-03-26T03:39:33;24.20;;;17.67;;
36599;SDS011;35385;55.668;37.508;2023-03-26T03:40:34;23.43;;;17.50;;
36599;SDS011;35385;55.668;37.508;2023-03-26T03:41:34;20.23;;;17.37;;
36599;SDS011;35385;55.668;37.508;2023-03-26T03:42:35;20.40;;;17.47;;
36599;SDS011;35385;55.668;37.508;2023-03-26T03:43:36;21.40;;;17.63;;
36599;SDS011;35385;55.668;37.508;2023-03-26T03:44:37;23.43;;;18.37;;
36599;SDS011;35385;55.668;37.508;2023-03-26T03:45:37;22.73;;;17.60;;
36599;SDS011;35385;55.668;37.508;2023-03-26T03:46:38;22.80;;;17.43;;
36599;SDS011;35385;55.668;37.508;2023-03-26T03:47:57;23.75;;;17.50;;
36599;SDS011;35385;55.668;37.508;2023-03-26T03:48:57;21.37;;;18.23;;
36599;SDS011;35385;55.668;37.508;2023-03-26T03:49:58;24.33;;;17.93;;
36599;SDS011;35385;55.668;37.508;2023-03-26T03:51:17;22.70;;;18.20;;
36599;SDS011;35385;55.668;37.508;2023-03-26T03:52:18;22.63;;;18.60;;
36599;SDS011;35385;55.668;37.508;2023-03-26T03:53:19;22.10;;;17.47;;
36599;SDS011;35385;55.668;37.508;2023-03-26T03:56:58;23.42;;;18.30;;
36599;SDS011;35385;55.668;37.508;2023-03-26T03:58:01;24.17;;;18.65;;
36599;SDS011;35385;55.668;37.508;2023-03-26T03:59:02;23.42;;;18.08;;
36599;SDS011;35385;55.668;37.508;2023-03-26T04:00:22;25.35;;;19.77;;
36599;SDS011;35385;55.668;37.508;2023-03-26T04:01:23;21.15;;;18.60;;
36599;SDS011;35385;55.668;37.508;2023-03-26T04:02:24;22.73;;;18.43;;
36599;SDS011;35385;55.668;37.508;2023-03-26T04:03:25;23.98;;;18.17;;
36599;SDS011;35385;55.668;37.508;2023-03-26T04:04:27;23.63;;;18.08;;
36599;SDS011;35385;55.668;37.508;2023-03-26T04:05:27;25.50;;;18.70;;
36599;SDS011;35385;55.668;37.508;2023-03-26T04:06:28;21.63;;;18.10;;
36599;SDS011;35385;55.668;37.508;2023-03-26T04:07:29;24.42;;;19.40;;
36599;SDS011;35385;55.668;37.508;2023-03-26T04:08:31;22.95;;;19.08;;
36599;SDS011;35385;55.668;37.508;2023-03-26T04:09:33;24.42;;;19.13;;
36599;SDS011;35385;55.668;37.508;2023-03-26T04:10:34;24.23;;;18.67;;
36599;SDS011;35385;55.668;37.508;2023-03-26T04:11:35;23.90;;;18.50;;
36599;SDS011;35385;55.668;37.508;2023-03-26T04:12:35;26.75;;;18.90;;
36599;SDS011;35385;55.668;37.508;2023-03-26T04:13:36;25.37;;;19.50;;
36599;SDS011;35385;55.668;37.508;2023-03-26T04:14:36;23.73;;;17.83;;
36599;SDS011;35385;55.668;37.508;2023-03-26T04:15:37;23.30;;;19.93;;
36599;SDS011;35385;55.668;37.508;2023-03-26T04:16:38;24.95;;;19.92;;
36599;SDS011;35385;55.668;37.508;2023-03-26T04:17:39;24.27;;;19.10;;
36599;SDS011;35385;55.668;37.508;2023-03-26T04:20:20;30.58;;;21.67;;
36599;SDS011;35385;55.668;37.508;2023-03-26T04:21:21;28.20;;;23.37;;
36599;SDS011;35385;55.668;37.508;2023-03-26T04:22:21;25.10;;;19.90;;
36599;SDS011;35385;55.668;37.508;2023-03-26T04:23:22;25.15;;;21.48;;
36599;SDS011;35385;55.668;37.508;2023-03-26T04:24:41;30.38;;;24.48;;
36599;SDS011;35385;55.668;37.508;2023-03-26T04:25:47;32.27;;;25.53;;
36599;SDS011;35385;55.668;37.508;2023-03-26T04:26:52;29.48;;;23.25;;
36599;SDS011;35385;55.668;37.508;2023-03-26T04:28:21;31.77;;;24.75;;
36599;SDS011;35385;55.668;37.508;2023-03-26T04:29:27;32.20;;;24.00;;
36599;SDS011;35385;55.668;37.508;2023-03-26T04:30:37;29.45;;;23.55;;
36599;SDS011;35385;55.668;37.508;2023-03-26T04:31:41;31.67;;;24.95;;
36599;SDS011;35385;55.668;37.508;2023-03-26T04:32:42;32.88;;;24.92;;
36599;SDS011;35385;55.668;37.508;2023-03-26T04:33:44;33.92;;;26.33;;
36599;SDS011;35385;55.668;37.508;2023-03-26T04:34:46;33.50;;;27.25;;
36599;SDS011;35385;55.668;37.508;2023-03-26T04:35:47;34.57;;;27.70;;
36599;SDS011;35385;55.668;37.508;2023-03-26T04:36:47;34.43;;;28.43;;
36599;SDS011;35385;55.668;37.508;2023-03-26T04:37:48;35.30;;;27.67;;
36599;SDS011;35385;55.668;37.508;2023-03-26T04:38:48;34.73;;;27.80;;
36599;SDS011;35385;55.668;37.508;2023-03-26T04:39:51;38.70;;;29.67;;
36599;SDS011;35385;55.668;37.508;2023-03-26T04:40:51;35.20;;;29.03;;
36599;SDS011;35385;55.668;37.508;2023-03-26T04:41:52;37.40;;;28.93;;
36599;SDS011;35385;55.668;37.508;2023-03-26T04:42:53;37.35;;;29.10;;
36599;SDS011;35385;55.668;37.508;2023-03-26T04:43:57;39.25;;;29.48;;
36599;SDS011;35385;55.668;37.508;2023-03-26T04:45:00;38.13;;;29.42;;
36599;SDS011;35385;55.668;37.508;2023-03-26T04:46:03;38.33;;;29.20;;
36599;SDS011;35385;55.668;37.508;2023-03-26T04:47:03;35.47;;;28.23;;
36599;SDS011;35385;55.668;37.508;2023-03-26T04:48:04;38.03;;;28.87;;
36599;SDS011;35385;55.668;37.508;2023-03-26T04:50:42;33.75;;;26.52;;
36599;SDS011;35385;55.668;37.508;2023-03-26T04:51:44;36.08;;;27.67;;
36599;SDS011;35385;55.668;37.508;2023-03-26T04:53:56;34.95;;;27.13;;
36599;SDS011;35385;55.668;37.508;2023-03-26T04:54:59;37.33;;;27.45;;
36599;SDS011;35385;55.668;37.508;2023-03-26T04:57:38;33.05;;;26.60;;
36599;SDS011;35385;55.668;37.508;2023-03-26T04:58:45;37.10;;;27.85;;
36599;SDS011;35385;55.668;37.508;2023-03-26T05:00:05;34.67;;;27.40;;
36599;SDS011;35385;55.668;37.508;2023-03-26T05:01:15;37.38;;;28.15;;
36599;SDS011;35385;55.668;37.508;2023-03-26T05:02:16;35.35;;;27.08;;
36599;SDS011;35385;55.668;37.508;2023-03-26T05:03:17;34.57;;;28.00;;
36599;SDS011;35385;55.668;37.508;2023-03-26T05:04:20;37.80;;;28.10;;
36599;SDS011;35385;55.668;37.508;2023-03-26T05:05:20;35.80;;;28.27;;
36599;SDS011;35385;55.668;37.508;2023-03-26T05:06:21;35.97;;;27.15;;
36599;SDS011;35385;55.668;37.508;2023-03-26T05:07:22;37.07;;;27.13;;
36599;SDS011;35385;55.668;37.508;2023-03-26T05:08:23;38.78;;;28.02;;
36599;SDS011;35385;55.668;37.508;2023-03-26T05:09:24;36.15;;;28.10;;
36599;SDS011;35385;55.668;37.508;2023-03-26T05:10:25;35.45;;;28.50;;
36599;SDS011;35385;55.668;37.508;2023-03-26T05:11:26;33.60;;;26.70;;
36599;SDS011;35385;55.668;37.508;2023-03-26T05:12:27;38.60;;;27.85;;
36599;SDS011;35385;55.668;37.508;2023-03-26T05:13:28;36.17;;;27.45;;
36599;SDS011;35385;55.668;37.508;2023-03-26T05:14:29;38.20;;;28.30;;
36599;SDS011;35385;55.668;37.508;2023-03-26T05:15:29;39.43;;;29.57;;
36599;SDS011;35385;55.668;37.508;2023-03-26T05:16:30;39.13;;;28.05;;
36599;SDS011;35385;55.668;37.508;2023-03-26T05:17:49;36.50;;;27.25;;
36599;SDS011;35385;55.668;37.508;2023-03-26T05:18:50;36.92;;;27.83;;
36599;SDS011;35385;55.668;37.508;2023-03-26T05:19:51;39.60;;;28.57;;
36599;SDS011;35385;55.668;37.508;2023-03-26T05:20:51;37.03;;;28.43;;
36599;SDS011;35385;55.668;37.508;2023-03-26T05:23:11;36.92;;;27.00;;
36599;SDS011;35385;55.668;37.508;2023-03-26T05:24:12;34.43;;;25.93;;
36599;SDS011;35385;55.668;37.508;2023-03-26T05:26:32;36.13;;;25.88;;
36599;SDS011;35385;55.668;37.508;2023-03-26T05:27:51;36.58;;;26.50;;
36599;SDS011;35385;55.668;37.508;2023-03-26T05:28:52;36.13;;;27.57;;
36599;SDS011;35385;55.668;37.508;2023-03-26T05:30:02;41.50;;;28.83;;
36599;SDS011;35385;55.668;37.508;2023-03-26T05:31:04;34.50;;;26.52;;
36599;SDS011;35385;55.668;37.508;2023-03-26T05:32:06;34.92;;;26.50;;
36599;SDS011;35385;55.668;37.508;2023-03-26T05:33:06;36.17;;;26.30;;
36599;SDS011;35385;55.668;37.508;2023-03-26T05:34:07;34.97;;;26.50;;
36599;SDS011;35385;55.668;37.508;2023-03-26T05:35:07;35.17;;;24.50;;
36599;SDS011;35385;55.668;37.508;2023-03-26T05:36:09;35.58;;;24.20;;
36599;SDS011;35385;55.668;37.508;2023-03-26T05:37:18;35.63;;;25.48;;
36599;SDS011;35385;55.668;37.508;2023-03-26T05:38:19;33.80;;;24.70;;
36599;SDS011;35385;55.668;37.508;2023-03-26T05:39:20;37.10;;;24.40;;
36599;SDS011;35385;55.668;37.508;2023-03-26T05:40:26;30.30;;;23.60;;
36599;SDS011;35385;55.668;37.508;2023-03-26T05:41:27;33.07;;;24.27;;
36599;SDS011;35385;55.668;37.508;2023-03-26T05:42:27;31.30;;;23.13;;
36599;SDS011;35385;55.668;37.508;2023-03-26T05:43:28;35.87;;;24.77;;
36599;SDS011;35385;55.668;37.508;2023-03-26T05:44:29;35.53;;;24.92;;
36599;SDS011;35385;55.668;37.508;2023-03-26T05:45:30;33.43;;;23.87;;
36599;SDS011;35385;55.668;37.508;2023-03-26T05:46:49;32.45;;;23.48;;
36599;SDS011;35385;55.668;37.508;2023-03-26T05:48:08;38.63;;;24.73;;
36599;SDS011;35385;55.668;37.508;2023-03-26T05:49:09;34.67;;;23.93;;
36599;SDS011;35385;55.668;37.508;2023-03-26T05:50:10;35.13;;;22.77;;
36599;SDS011;35385;55.668;37.508;2023-03-26T05:51:10;33.33;;;23.92;;
36599;SDS011;35385;55.668;37.508;2023-03-26T05:52:30;37.50;;;26.65;;
36599;SDS011;35385;55.668;37.508;2023-03-26T05:53:30;39.70;;;26.33;;
36599;SDS011;35385;55.668;37.508;2023-03-26T05:54:31;33.67;;;23.83;;
36599;SDS011;35385;55.668;37.508;2023-03-26T05:55:51;33.88;;;22.38;;
36599;SDS011;35385;55.668;37.508;2023-03-26T05:56:57;35.03;;;23.85;;
36599;SDS011;35385;55.668;37.508;2023-03-26T05:57:59;32.65;;;21.88;;
36599;SDS011;35385;55.668;37.508;2023-03-26T05:59:00;32.33;;;22.30;;
36599;SDS011;35385;55.668;37.508;2023-03-26T06:00:04;32.97;;;21.17;;
36599;SDS011;35385;55.668;37.508;2023-03-26T06:01:09;35.08;;;20.95;;
36599;SDS011;35385;55.668;37.508;2023-03-26T06:02:15;31.83;;;19.65;;
36599;SDS011;35385;55.668;37.508;2023-03-26T06:03:16;33.37;;;20.00;;
36599;SDS011;35385;55.668;37.508;2023-03-26T06:04:17;36.47;;;19.97;;
36599;SDS011;35385;55.668;37.508;2023-03-26T06:05:17;32.97;;;20.03;;
36599;SDS011;35385;55.668;37.508;2023-03-26T06:06:19;33.93;;;20.33;;
36599;SDS011;35385;55.668;37.508;2023-03-26T06:08:20;40.30;;;21.88;;
36599;SDS011;35385;55.668;37.508;2023-03-26T06:09:21;38.97;;;21.07;;
36599;SDS011;35385;55.668;37.508;2023-03-26T06:10:21;41.53;;;21.37;;
36599;SDS011;35385;55.668;37.508;2023-03-26T06:11:22;39.85;;;22.02;;
36599;SDS011;35385;55.668;37.508;2023-03-26T06:12:23;41.67;;;24.23;;
36599;SDS011;35385;55.668;37.508;2023-03-26T06:13:23;44.30;;;24.23;;
36599;SDS011;35385;55.668;37.508;2023-03-26T06:14:24;46.47;;;25.30;;
36599;SDS011;35385;55.668;37.508;2023-03-26T06:15:25;45.63;;;26.03;;
36599;SDS011;35385;55.668;37.508;2023-03-26T06:16:25;46.10;;;25.43;;
36599;SDS011;35385;55.668;37.508;2023-03-26T06:17:44;52.13;;;26.80;;
36599;SDS011;35385;55.668;37.508;2023-03-26T06:18:45;46.55;;;25.00;;
36599;SDS011;35385;55.668;37.508;2023-03-26T06:21:24;44.88;;;25.92;;
36599;SDS011;35385;55.668;37.508;2023-03-26T06:22:44;38.72;;;23.40;;
36599;SDS011;35385;55.668;37.508;2023-03-26T06:25:04;44.38;;;24.92;;
36599;SDS011;35385;55.668;37.508;2023-03-26T06:26:05;42.77;;;24.93;;
36599;SDS011;35385;55.668;37.508;2023-03-26T06:27:06;42.90;;;23.97;;
36599;SDS011;35385;55.668;37.508;2023-03-26T06:28:06;40.67;;;24.37;;
36599;SDS011;35385;55.668;37.508;2023-03-26T06:29:25;41.13;;;23.63;;
36599;SDS011;35385;55.668;37.508;2023-03-26T06:30:26;43.07;;;23.23;;
36599;SDS011;35385;55.668;37.508;2023-03-26T06:31:26;43.20;;;23.97;;
36599;SDS011;35385;55.668;37.508;2023-03-26T06:32:27;43.10;;;24.77;;
36599;SDS011;35385;55.668;37.508;2023-03-26T06:33:28;46.30;;;25.27;;
36599;SDS011;35385;55.668;37.508;2023-03-26T06:34:28;47.87;;;25.07;;
36599;SDS011;35385;55.668;37.508;2023-03-26T06:35:29;41.03;;;23.37;;
36599;SDS011;35385;55.668;37.508;2023-03-26T06:36:30;38.47;;;22.35;;
36599;SDS011;35385;55.668;37.508;2023-03-26T06:37:31;39.30;;;22.17;;
36599;SDS011;35385;55.668;37.508;2023-03-26T06:38:31;42.67;;;23.07;;
36599;SDS011;35385;55.668;37.508;2023-03-26T06:39:32;36.33;;;21.43;;
36599;SDS011;35385;55.668;37.508;2023-03-26T06:40:32;41.27;;;21.10;;
36599;SDS011;35385;55.668;37.508;2023-03-26T06:41:34;38.35;;;22.02;;
36599;SDS011;35385;55.668;37.508;2023-03-26T06:42:35;40.70;;;22.23;;
36599;SDS011;35385;55.668;37.508;2023-03-26T06:43:35;37.50;;;22.03;;
36599;SDS011;35385;55.668;37.508;2023-03-26T06:44:38;39.72;;;21.50;;
36599;SDS011;35385;55.668;37.508;2023-03-26T06:46:57;36.78;;;21.27;;
36599;SDS011;35385;55.668;37.508;2023-03-26T06:47:58;34.50;;;21.03;;
36599;SDS011;35385;55.668;37.508;2023-03-26T06:49:17;33.65;;;20.75;;
36599;SDS011;35385;55.668;37.508;2023-03-26T06:50:18;33.07;;;20.00;;
36599;SDS011;35385;55.668;37.508;2023-03-26T06:51:18;36.40;;;20.73;;
36599;SDS011;35385;55.668;37.508;2023-03-26T06:52:19;38.20;;;21.73;;
36599;SDS011;35385;55.668;37.508;2023-03-26T06:53:19;38.40;;;20.33;;
36599;SDS011;35385;55.668;37.508;2023-03-26T06:54:20;40.87;;;21.53;;
36599;SDS011;35385;55.668;37.508;2023-03-26T06:55:21;38.27;;;21.20;;
36599;SDS011;35385;55.668;37.508;2023-03-26T06:56:22;32.00;;;18.42;;
36599;SDS011;35385;55.668;37.508;2023-03-26T06:57:22;33.33;;;18.47;;
36599;SDS011;35385;55.668;37.508;2023-03-26T06:58:23;30.57;;;18.07;;